Lynch, NE (68746)

10:00 PM CDT on August 26, 2016 (GMT -0500)
Bristow/Gross | | Change Station

Elev 1762 ft 42.92 °N, 98.59 °W | Updated 11 seconds ago

Overcast
Overcast
66.9 °F
Feels Like 66.9 °F
N
5.0
Wind Variable Wind from SSE

Today
High -- | Low -- °F
--% Chance of Precip.
Yesterday
High -- | Low -- °F
Precip. -- in
Pressure 30.07 in
Visibility 10.0 miles
Clouds Overcast 11000 ft
Dew Point 59 °F
Humidity 78%
Rainfall 0.00 in
Snow Depth Not available.
6:52 AM 8:17 PM
Waning Crescent, 29% visible
METAR KONL 270255Z AUTO 11008KT 10SM OVC110 19/14 A3007 RMK AO2 T01900142
Pressure 30.07 in
Visibility 10.0 miles
Clouds Overcast 11000 ft
Dew Point 59 °F
Humidity 78%
Rainfall 0.00 in
Snow Depth Not available.
6:52 AM 8:17 PM
Waning Crescent, 29% visible
METAR KONL 270255Z AUTO 11008KT 10SM OVC110 19/14 A3007 RMK AO2 T01900142

10-Day Weather Forecast

Almanac

Astronomy

Aug. 26, 2016 Rise Set
Actual Time
Civil Twilight
Nautical Twilight
Astronomical Twilight
Moon
Length of Visible Light
Length of Day
Tomorrow will be .
, % of the Moon is Illuminated

Today's Extremes

State Highs State Lows

Community

WunderPhotos

Upload Photos

1,935,281 photos uploaded!

WunderBlog® & News

Nearby

Air Quality

  Air Quality AQ Index Pollutant
Not available.

Snow Depth

Station Depth Elevation

Earthquake Activity

City Distance Mag. Time & Date
Minimum magnitude displayed is 2.5.

Coastal Water Temperatures

Place Temperature

Stations

Nearby Weather Stations

Station Location Temp. Windchill Dew Point Humidity Wind Precip. Elev Updated Type
                   

Watches & Warnings

There are currently no watches in effect.